sensor_id;sensor_type;location;lat;lon;timestamp;P1;durP1;ratioP1;P2;durP2;ratioP2
84644;SDS011;74874;48.072;11.688;2024-03-02T00:02:06;19.48;;;10.48;;
84644;SDS011;74874;48.072;11.688;2024-03-02T00:04:32;19.15;;;11.43;;
84644;SDS011;74874;48.072;11.688;2024-03-02T00:06:57;19.42;;;11.88;;
84644;SDS011;74874;48.072;11.688;2024-03-02T00:09:23;17.20;;;10.60;;
84644;SDS011;74874;48.072;11.688;2024-03-02T00:11:48;19.27;;;11.85;;
84644;SDS011;74874;48.072;11.688;2024-03-02T00:14:13;17.05;;;11.45;;
84644;SDS011;74874;48.072;11.688;2024-03-02T00:16:39;19.92;;;11.70;;
84644;SDS011;74874;48.072;11.688;2024-03-02T00:19:05;18.83;;;11.48;;
84644;SDS011;74874;48.072;11.688;2024-03-02T00:21:31;21.40;;;12.38;;
84644;SDS011;74874;48.072;11.688;2024-03-02T00:23:57;21.33;;;12.10;;
84644;SDS011;74874;48.072;11.688;2024-03-02T00:28:47;19.70;;;11.77;;
84644;SDS011;74874;48.072;11.688;2024-03-02T00:31:15;18.85;;;11.18;;
84644;SDS011;74874;48.072;11.688;2024-03-02T00:33:41;19.25;;;10.75;;
84644;SDS011;74874;48.072;11.688;2024-03-02T00:36:08;19.13;;;10.93;;
84644;SDS011;74874;48.072;11.688;2024-03-02T00:38:34;19.98;;;11.55;;
84644;SDS011;74874;48.072;11.688;2024-03-02T00:41:04;16.42;;;10.40;;
84644;SDS011;74874;48.072;11.688;2024-03-02T00:43:42;17.90;;;11.65;;
84644;SDS011;74874;48.072;11.688;2024-03-02T00:46:09;20.00;;;11.02;;
84644;SDS011;74874;48.072;11.688;2024-03-02T00:48:47;18.35;;;10.50;;
84644;SDS011;74874;48.072;11.688;2024-03-02T00:51:16;18.02;;;9.70;;
84644;SDS011;74874;48.072;11.688;2024-03-02T00:53:41;18.15;;;10.48;;
84644;SDS011;74874;48.072;11.688;2024-03-02T00:56:09;18.25;;;10.80;;
84644;SDS011;74874;48.072;11.688;2024-03-02T00:58:34;20.70;;;10.48;;
84644;SDS011;74874;48.072;11.688;2024-03-02T01:01:00;17.70;;;10.52;;
84644;SDS011;74874;48.072;11.688;2024-03-02T01:03:25;17.88;;;10.68;;
84644;SDS011;74874;48.072;11.688;2024-03-02T01:05:51;18.05;;;10.55;;
84644;SDS011;74874;48.072;11.688;2024-03-02T01:08:16;17.95;;;10.32;;
84644;SDS011;74874;48.072;11.688;2024-03-02T01:10:41;19.90;;;11.60;;
84644;SDS011;74874;48.072;11.688;2024-03-02T01:13:07;19.15;;;9.95;;
84644;SDS011;74874;48.072;11.688;2024-03-02T01:15:33;16.17;;;10.13;;
84644;SDS011;74874;48.072;11.688;2024-03-02T01:17:58;20.23;;;10.77;;
84644;SDS011;74874;48.072;11.688;2024-03-02T01:20:23;15.60;;;9.70;;
84644;SDS011;74874;48.072;11.688;2024-03-02T01:22:49;18.83;;;10.50;;
84644;SDS011;74874;48.072;11.688;2024-03-02T01:25:15;17.50;;;10.43;;
84644;SDS011;74874;48.072;11.688;2024-03-02T01:27:40;19.77;;;10.55;;
84644;SDS011;74874;48.072;11.688;2024-03-02T01:30:06;17.58;;;10.38;;
84644;SDS011;74874;48.072;11.688;2024-03-02T01:32:31;17.17;;;10.23;;
84644;SDS011;74874;48.072;11.688;2024-03-02T01:34:57;17.27;;;9.75;;
84644;SDS011;74874;48.072;11.688;2024-03-02T01:37:22;17.95;;;10.50;;
84644;SDS011;74874;48.072;11.688;2024-03-02T01:39:47;17.33;;;10.05;;
84644;SDS011;74874;48.072;11.688;2024-03-02T01:42:13;18.73;;;9.98;;
84644;SDS011;74874;48.072;11.688;2024-03-02T01:44:39;18.05;;;10.38;;
84644;SDS011;74874;48.072;11.688;2024-03-02T01:47:05;17.23;;;10.30;;
84644;SDS011;74874;48.072;11.688;2024-03-02T01:49:30;17.45;;;10.18;;
84644;SDS011;74874;48.072;11.688;2024-03-02T01:51:56;17.17;;;9.35;;
84644;SDS011;74874;48.072;11.688;2024-03-02T01:54:21;14.32;;;8.45;;
84644;SDS011;74874;48.072;11.688;2024-03-02T01:56:47;14.93;;;8.98;;
84644;SDS011;74874;48.072;11.688;2024-03-02T01:59:12;16.17;;;9.40;;
84644;SDS011;74874;48.072;11.688;2024-03-02T02:01:38;16.02;;;9.18;;
84644;SDS011;74874;48.072;11.688;2024-03-02T02:04:04;14.13;;;9.00;;
84644;SDS011;74874;48.072;11.688;2024-03-02T02:06:31;15.63;;;9.20;;
84644;SDS011;74874;48.072;11.688;2024-03-02T02:08:59;17.17;;;8.38;;
84644;SDS011;74874;48.072;11.688;2024-03-02T02:11:25;15.75;;;9.48;;
84644;SDS011;74874;48.072;11.688;2024-03-02T02:13:50;15.38;;;9.70;;
84644;SDS011;74874;48.072;11.688;2024-03-02T02:16:16;16.17;;;9.18;;
84644;SDS011;74874;48.072;11.688;2024-03-02T02:18:41;15.88;;;8.98;;
84644;SDS011;74874;48.072;11.688;2024-03-02T02:21:07;15.45;;;10.07;;
84644;SDS011;74874;48.072;11.688;2024-03-02T02:23:32;14.70;;;9.20;;
84644;SDS011;74874;48.072;11.688;2024-03-02T02:25:58;13.65;;;8.75;;
84644;SDS011;74874;48.072;11.688;2024-03-02T02:28:23;13.85;;;8.70;;
84644;SDS011;74874;48.072;11.688;2024-03-02T02:30:49;15.55;;;9.15;;
84644;SDS011;74874;48.072;11.688;2024-03-02T02:33:14;14.57;;;8.98;;
84644;SDS011;74874;48.072;11.688;2024-03-02T02:35:39;15.13;;;9.13;;
84644;SDS011;74874;48.072;11.688;2024-03-02T02:38:05;16.92;;;10.35;;
84644;SDS011;74874;48.072;11.688;2024-03-02T02:40:30;18.40;;;9.70;;
84644;SDS011;74874;48.072;11.688;2024-03-02T02:42:56;15.13;;;9.02;;
84644;SDS011;74874;48.072;11.688;2024-03-02T02:45:22;18.30;;;10.25;;
84644;SDS011;74874;48.072;11.688;2024-03-02T02:47:47;16.63;;;9.50;;
84644;SDS011;74874;48.072;11.688;2024-03-02T02:50:13;16.73;;;9.65;;
84644;SDS011;74874;48.072;11.688;2024-03-02T02:52:39;16.58;;;10.10;;
84644;SDS011;74874;48.072;11.688;2024-03-02T02:55:06;16.25;;;10.05;;
84644;SDS011;74874;48.072;11.688;2024-03-02T02:57:33;18.92;;;10.90;;
84644;SDS011;74874;48.072;11.688;2024-03-02T03:00:07;17.98;;;9.70;;
84644;SDS011;74874;48.072;11.688;2024-03-02T03:02:39;18.05;;;10.38;;
84644;SDS011;74874;48.072;11.688;2024-03-02T03:05:05;19.70;;;11.25;;
84644;SDS011;74874;48.072;11.688;2024-03-02T03:07:31;20.15;;;11.60;;
84644;SDS011;74874;48.072;11.688;2024-03-02T03:09:57;19.05;;;10.98;;
84644;SDS011;74874;48.072;11.688;2024-03-02T03:12:23;20.38;;;12.02;;
84644;SDS011;74874;48.072;11.688;2024-03-02T03:14:48;21.20;;;11.80;;
84644;SDS011;74874;48.072;11.688;2024-03-02T03:17:13;15.95;;;10.13;;
84644;SDS011;74874;48.072;11.688;2024-03-02T03:19:39;20.67;;;12.27;;
84644;SDS011;74874;48.072;11.688;2024-03-02T03:22:04;19.55;;;11.13;;
84644;SDS011;74874;48.072;11.688;2024-03-02T03:24:29;17.35;;;10.75;;
84644;SDS011;74874;48.072;11.688;2024-03-02T03:26:55;18.42;;;10.98;;
84644;SDS011;74874;48.072;11.688;2024-03-02T03:29:20;20.70;;;12.05;;
84644;SDS011;74874;48.072;11.688;2024-03-02T03:31:45;21.02;;;11.60;;
84644;SDS011;74874;48.072;11.688;2024-03-02T03:34:11;17.63;;;11.95;;
84644;SDS011;74874;48.072;11.688;2024-03-02T03:36:40;18.85;;;11.43;;
84644;SDS011;74874;48.072;11.688;2024-03-02T03:39:06;18.23;;;11.05;;
84644;SDS011;74874;48.072;11.688;2024-03-02T03:41:31;19.98;;;11.00;;
84644;SDS011;74874;48.072;11.688;2024-03-02T03:43:56;17.98;;;11.82;;
84644;SDS011;74874;48.072;11.688;2024-03-02T03:46:22;20.20;;;11.93;;
84644;SDS011;74874;48.072;11.688;2024-03-02T03:48:47;17.55;;;10.93;;
84644;SDS011;74874;48.072;11.688;2024-03-02T03:51:12;19.92;;;12.35;;
84644;SDS011;74874;48.072;11.688;2024-03-02T03:53:38;18.38;;;11.05;;
84644;SDS011;74874;48.072;11.688;2024-03-02T03:56:03;19.30;;;12.13;;
84644;SDS011;74874;48.072;11.688;2024-03-02T03:58:29;19.20;;;11.40;;
84644;SDS011;74874;48.072;11.688;2024-03-02T04:00:54;18.67;;;11.30;;
84644;SDS011;74874;48.072;11.688;2024-03-02T04:03:19;16.30;;;10.93;;
84644;SDS011;74874;48.072;11.688;2024-03-02T04:05:45;17.98;;;11.02;;
84644;SDS011;74874;48.072;11.688;2024-03-02T04:10:36;19.85;;;11.88;;
84644;SDS011;74874;48.072;11.688;2024-03-02T04:13:01;18.48;;;11.13;;
84644;SDS011;74874;48.072;11.688;2024-03-02T04:17:52;17.77;;;11.25;;
84644;SDS011;74874;48.072;11.688;2024-03-02T04:20:17;17.52;;;10.45;;
84644;SDS011;74874;48.072;11.688;2024-03-02T04:22:43;23.58;;;13.25;;
84644;SDS011;74874;48.072;11.688;2024-03-02T04:25:08;18.95;;;11.50;;
84644;SDS011;74874;48.072;11.688;2024-03-02T04:27:34;19.90;;;12.18;;
84644;SDS011;74874;48.072;11.688;2024-03-02T04:30:00;20.20;;;12.13;;
84644;SDS011;74874;48.072;11.688;2024-03-02T04:32:26;18.90;;;11.25;;
84644;SDS011;74874;48.072;11.688;2024-03-02T04:34:52;21.73;;;13.02;;
84644;SDS011;74874;48.072;11.688;2024-03-02T04:37:17;20.48;;;11.95;;
84644;SDS011;74874;48.072;11.688;2024-03-02T04:39:42;22.58;;;12.73;;
84644;SDS011;74874;48.072;11.688;2024-03-02T04:42:08;21.17;;;13.50;;
84644;SDS011;74874;48.072;11.688;2024-03-02T04:44:33;21.92;;;12.27;;
84644;SDS011;74874;48.072;11.688;2024-03-02T04:46:58;22.00;;;12.20;;
84644;SDS011;74874;48.072;11.688;2024-03-02T04:49:24;22.75;;;13.15;;
84644;SDS011;74874;48.072;11.688;2024-03-02T04:51:49;21.98;;;12.77;;
84644;SDS011;74874;48.072;11.688;2024-03-02T04:54:14;23.83;;;13.45;;
84644;SDS011;74874;48.072;11.688;2024-03-02T04:56:40;23.50;;;13.73;;
84644;SDS011;74874;48.072;11.688;2024-03-02T04:59:09;24.20;;;13.80;;
84644;SDS011;74874;48.072;11.688;2024-03-02T05:01:35;23.35;;;13.48;;
84644;SDS011;74874;48.072;11.688;2024-03-02T05:04:01;24.55;;;13.25;;
84644;SDS011;74874;48.072;11.688;2024-03-02T05:06:26;22.65;;;13.55;;
84644;SDS011;74874;48.072;11.688;2024-03-02T05:08:51;22.85;;;13.25;;
84644;SDS011;74874;48.072;11.688;2024-03-02T05:11:17;23.50;;;14.38;;
84644;SDS011;74874;48.072;11.688;2024-03-02T05:16:39;26.75;;;13.52;;
84644;SDS011;74874;48.072;11.688;2024-03-02T05:19:07;28.05;;;14.35;;
84644;SDS011;74874;48.072;11.688;2024-03-02T05:21:33;25.45;;;14.55;;
84644;SDS011;74874;48.072;11.688;2024-03-02T05:23:58;23.70;;;14.32;;
84644;SDS011;74874;48.072;11.688;2024-03-02T05:26:24;30.88;;;15.80;;
84644;SDS011;74874;48.072;11.688;2024-03-02T05:28:49;27.77;;;14.52;;
84644;SDS011;74874;48.072;11.688;2024-03-02T05:31:15;29.25;;;16.17;;
84644;SDS011;74874;48.072;11.688;2024-03-02T05:33:41;26.67;;;15.85;;
84644;SDS011;74874;48.072;11.688;2024-03-02T05:36:07;31.70;;;16.20;;
84644;SDS011;74874;48.072;11.688;2024-03-02T05:38:34;28.55;;;15.48;;
84644;SDS011;74874;48.072;11.688;2024-03-02T05:41:00;33.15;;;16.08;;
84644;SDS011;74874;48.072;11.688;2024-03-02T05:43:25;34.15;;;16.92;;
84644;SDS011;74874;48.072;11.688;2024-03-02T05:45:50;28.20;;;15.50;;
84644;SDS011;74874;48.072;11.688;2024-03-02T05:48:16;27.50;;;15.15;;
84644;SDS011;74874;48.072;11.688;2024-03-02T05:50:41;31.52;;;16.65;;
84644;SDS011;74874;48.072;11.688;2024-03-02T05:53:06;31.48;;;16.73;;
84644;SDS011;74874;48.072;11.688;2024-03-02T05:55:32;28.52;;;16.50;;
84644;SDS011;74874;48.072;11.688;2024-03-02T05:57:57;28.05;;;15.02;;
84644;SDS011;74874;48.072;11.688;2024-03-02T06:00:23;29.10;;;14.93;;
84644;SDS011;74874;48.072;11.688;2024-03-02T06:02:48;31.25;;;15.98;;
84644;SDS011;74874;48.072;11.688;2024-03-02T06:05:14;30.67;;;17.20;;
84644;SDS011;74874;48.072;11.688;2024-03-02T06:07:40;28.30;;;15.38;;
84644;SDS011;74874;48.072;11.688;2024-03-02T06:10:05;29.25;;;15.82;;
84644;SDS011;74874;48.072;11.688;2024-03-02T06:12:32;33.03;;;16.75;;
84644;SDS011;74874;48.072;11.688;2024-03-02T06:14:57;30.38;;;16.35;;
84644;SDS011;74874;48.072;11.688;2024-03-02T06:17:23;31.25;;;17.25;;
84644;SDS011;74874;48.072;11.688;2024-03-02T06:19:48;31.80;;;17.73;;
84644;SDS011;74874;48.072;11.688;2024-03-02T06:22:13;35.47;;;18.88;;
84644;SDS011;74874;48.072;11.688;2024-03-02T06:24:39;34.40;;;18.38;;
84644;SDS011;74874;48.072;11.688;2024-03-02T06:27:04;41.92;;;18.92;;
84644;SDS011;74874;48.072;11.688;2024-03-02T06:29:32;32.40;;;17.48;;
84644;SDS011;74874;48.072;11.688;2024-03-02T06:31:58;35.95;;;18.15;;
84644;SDS011;74874;48.072;11.688;2024-03-02T06:34:23;33.45;;;17.02;;
84644;SDS011;74874;48.072;11.688;2024-03-02T06:36:48;30.63;;;16.55;;
84644;SDS011;74874;48.072;11.688;2024-03-02T06:39:14;33.67;;;17.88;;
84644;SDS011;74874;48.072;11.688;2024-03-02T06:41:39;36.17;;;19.25;;
84644;SDS011;74874;48.072;11.688;2024-03-02T06:44:04;35.65;;;18.83;;
84644;SDS011;74874;48.072;11.688;2024-03-02T06:46:31;36.03;;;18.15;;
84644;SDS011;74874;48.072;11.688;2024-03-02T06:48:57;37.95;;;19.88;;
84644;SDS011;74874;48.072;11.688;2024-03-02T06:51:22;32.13;;;17.88;;
84644;SDS011;74874;48.072;11.688;2024-03-02T06:53:48;35.45;;;18.98;;
84644;SDS011;74874;48.072;11.688;2024-03-02T06:56:13;40.33;;;20.65;;
84644;SDS011;74874;48.072;11.688;2024-03-02T06:58:38;39.67;;;20.80;;
84644;SDS011;74874;48.072;11.688;2024-03-02T07:01:04;47.72;;;22.08;;
84644;SDS011;74874;48.072;11.688;2024-03-02T07:03:30;38.35;;;21.83;;
84644;SDS011;74874;48.072;11.688;2024-03-02T07:05:55;44.25;;;20.40;;
84644;SDS011;74874;48.072;11.688;2024-03-02T07:08:23;41.47;;;19.92;;
84644;SDS011;74874;48.072;11.688;2024-03-02T07:10:48;44.08;;;21.73;;
84644;SDS011;74874;48.072;11.688;2024-03-02T07:13:14;43.25;;;22.67;;
84644;SDS011;74874;48.072;11.688;2024-03-02T07:15:39;41.42;;;21.52;;
84644;SDS011;74874;48.072;11.688;2024-03-02T07:18:23;44.00;;;23.17;;
84644;SDS011;74874;48.072;11.688;2024-03-02T07:20:48;38.80;;;20.30;;
84644;SDS011;74874;48.072;11.688;2024-03-02T07:23:14;47.05;;;23.25;;
84644;SDS011;74874;48.072;11.688;2024-03-02T07:25:40;49.00;;;24.05;;
84644;SDS011;74874;48.072;11.688;2024-03-02T07:28:05;51.03;;;24.55;;
84644;SDS011;74874;48.072;11.688;2024-03-02T07:30:32;52.25;;;24.85;;
84644;SDS011;74874;48.072;11.688;2024-03-02T07:32:57;51.35;;;23.67;;
84644;SDS011;74874;48.072;11.688;2024-03-02T07:35:24;56.35;;;24.42;;
84644;SDS011;74874;48.072;11.688;2024-03-02T07:37:52;55.53;;;25.05;;
84644;SDS011;74874;48.072;11.688;2024-03-02T07:40:18;51.05;;;24.48;;
84644;SDS011;74874;48.072;11.688;2024-03-02T07:42:43;47.97;;;23.83;;
84644;SDS011;74874;48.072;11.688;2024-03-02T07:45:09;45.00;;;21.70;;
84644;SDS011;74874;48.072;11.688;2024-03-02T07:47:34;49.53;;;23.65;;
84644;SDS011;74874;48.072;11.688;2024-03-02T07:50:00;50.75;;;23.27;;
84644;SDS011;74874;48.072;11.688;2024-03-02T07:52:25;46.55;;;22.65;;
84644;SDS011;74874;48.072;11.688;2024-03-02T07:54:51;47.65;;;23.27;;
84644;SDS011;74874;48.072;11.688;2024-03-02T07:57:16;37.58;;;20.13;;
84644;SDS011;74874;48.072;11.688;2024-03-02T07:59:41;45.50;;;21.73;;
84644;SDS011;74874;48.072;11.688;2024-03-02T08:02:08;47.05;;;23.38;;
84644;SDS011;74874;48.072;11.688;2024-03-02T08:04:33;37.53;;;18.83;;
84644;SDS011;74874;48.072;11.688;2024-03-02T08:06:59;42.60;;;20.77;;
84644;SDS011;74874;48.072;11.688;2024-03-02T08:09:24;47.90;;;21.38;;
84644;SDS011;74874;48.072;11.688;2024-03-02T08:11:51;52.05;;;23.65;;
84644;SDS011;74874;48.072;11.688;2024-03-02T08:14:16;51.20;;;24.73;;
84644;SDS011;74874;48.072;11.688;2024-03-02T08:16:41;68.28;;;32.67;;
84644;SDS011;74874;48.072;11.688;2024-03-02T08:19:07;65.47;;;42.83;;
84644;SDS011;74874;48.072;11.688;2024-03-02T08:21:33;49.58;;;23.85;;
84644;SDS011;74874;48.072;11.688;2024-03-02T08:24:00;45.22;;;24.73;;
84644;SDS011;74874;48.072;11.688;2024-03-02T08:26:26;43.00;;;22.10;;
84644;SDS011;74874;48.072;11.688;2024-03-02T08:28:53;46.55;;;22.50;;
84644;SDS011;74874;48.072;11.688;2024-03-02T08:31:19;112.05;;;63.50;;
84644;SDS011;74874;48.072;11.688;2024-03-02T08:33:44;41.58;;;23.02;;
84644;SDS011;74874;48.072;11.688;2024-03-02T08:36:09;41.30;;;21.25;;
84644;SDS011;74874;48.072;11.688;2024-03-02T08:38:35;32.58;;;17.48;;
84644;SDS011;74874;48.072;11.688;2024-03-02T08:41:00;34.47;;;18.15;;
84644;SDS011;74874;48.072;11.688;2024-03-02T08:43:26;27.00;;;16.13;;
84644;SDS011;74874;48.072;11.688;2024-03-02T08:45:51;26.85;;;15.18;;
84644;SDS011;74874;48.072;11.688;2024-03-02T08:48:17;23.45;;;13.63;;
84644;SDS011;74874;48.072;11.688;2024-03-02T08:50:42;19.00;;;11.25;;
84644;SDS011;74874;48.072;11.688;2024-03-02T08:53:08;24.40;;;13.10;;
84644;SDS011;74874;48.072;11.688;2024-03-02T08:55:33;19.00;;;11.48;;
84644;SDS011;74874;48.072;11.688;2024-03-02T08:57:58;21.55;;;11.95;;
84644;SDS011;74874;48.072;11.688;2024-03-02T09:00:24;21.48;;;10.40;;
84644;SDS011;74874;48.072;11.688;2024-03-02T09:02:49;16.92;;;9.77;;
84644;SDS011;74874;48.072;11.688;2024-03-02T09:05:15;16.88;;;9.10;;
84644;SDS011;74874;48.072;11.688;2024-03-02T09:07:40;12.88;;;8.50;;
84644;SDS011;74874;48.072;11.688;2024-03-02T09:10:06;16.20;;;9.48;;
84644;SDS011;74874;48.072;11.688;2024-03-02T09:12:32;14.65;;;8.10;;
84644;SDS011;74874;48.072;11.688;2024-03-02T09:14:59;12.27;;;6.97;;
84644;SDS011;74874;48.072;11.688;2024-03-02T09:17:31;10.30;;;7.28;;
84644;SDS011;74874;48.072;11.688;2024-03-02T09:19:56;12.05;;;7.90;;
84644;SDS011;74874;48.072;11.688;2024-03-02T09:22:22;13.80;;;8.32;;
84644;SDS011;74874;48.072;11.688;2024-03-02T09:24:48;16.15;;;8.80;;
84644;SDS011;74874;48.072;11.688;2024-03-02T09:27:13;18.70;;;10.73;;
84644;SDS011;74874;48.072;11.688;2024-03-02T09:29:38;21.23;;;12.02;;
84644;SDS011;74874;48.072;11.688;2024-03-02T09:32:04;21.27;;;12.32;;
84644;SDS011;74874;48.072;11.688;2024-03-02T09:34:30;16.80;;;9.68;;
84644;SDS011;74874;48.072;11.688;2024-03-02T09:36:56;18.13;;;9.70;;
84644;SDS011;74874;48.072;11.688;2024-03-02T09:39:22;19.50;;;10.07;;
84644;SDS011;74874;48.072;11.688;2024-03-02T09:41:48;18.20;;;10.07;;
84644;SDS011;74874;48.072;11.688;2024-03-02T09:44:14;16.75;;;9.85;;
84644;SDS011;74874;48.072;11.688;2024-03-02T09:46:39;17.67;;;10.85;;
84644;SDS011;74874;48.072;11.688;2024-03-02T09:49:05;17.55;;;9.52;;
84644;SDS011;74874;48.072;11.688;2024-03-02T09:51:31;17.20;;;9.88;;
84644;SDS011;74874;48.072;11.688;2024-03-02T09:53:56;15.48;;;9.43;;
84644;SDS011;74874;48.072;11.688;2024-03-02T09:56:22;15.30;;;9.18;;
84644;SDS011;74874;48.072;11.688;2024-03-02T09:58:47;15.30;;;8.45;;
84644;SDS011;74874;48.072;11.688;2024-03-02T10:01:13;15.98;;;7.72;;
84644;SDS011;74874;48.072;11.688;2024-03-02T10:03:38;12.57;;;7.13;;
84644;SDS011;74874;48.072;11.688;2024-03-02T10:06:22;11.63;;;7.18;;
84644;SDS011;74874;48.072;11.688;2024-03-02T10:08:49;14.45;;;7.38;;
84644;SDS011;74874;48.072;11.688;2024-03-02T10:11:28;11.95;;;6.93;;
84644;SDS011;74874;48.072;11.688;2024-03-02T10:14:04;12.55;;;7.22;;
84644;SDS011;74874;48.072;11.688;2024-03-02T10:16:37;13.80;;;8.07;;
84644;SDS011;74874;48.072;11.688;2024-03-02T10:21:47;11.82;;;6.53;;
84644;SDS011;74874;48.072;11.688;2024-03-02T10:24:14;15.50;;;7.72;;
84644;SDS011;74874;48.072;11.688;2024-03-02T10:26:40;12.77;;;8.23;;
84644;SDS011;74874;48.072;11.688;2024-03-02T10:29:07;14.15;;;8.00;;
84644;SDS011;74874;48.072;11.688;2024-03-02T10:31:33;15.27;;;7.47;;
84644;SDS011;74874;48.072;11.688;2024-03-02T10:33:59;12.90;;;7.03;;
84644;SDS011;74874;48.072;11.688;2024-03-02T10:36:25;13.73;;;8.25;;
84644;SDS011;74874;48.072;11.688;2024-03-02T10:38:51;11.02;;;7.35;;
84644;SDS011;74874;48.072;11.688;2024-03-02T10:41:20;12.07;;;7.03;;
84644;SDS011;74874;48.072;11.688;2024-03-02T10:43:48;13.57;;;6.40;;
84644;SDS011;74874;48.072;11.688;2024-03-02T10:46:13;14.15;;;7.88;;
84644;SDS011;74874;48.072;11.688;2024-03-02T10:48:39;14.93;;;7.80;;
84644;SDS011;74874;48.072;11.688;2024-03-02T10:51:06;17.67;;;9.68;;
84644;SDS011;74874;48.072;11.688;2024-03-02T10:53:31;14.60;;;7.60;;
84644;SDS011;74874;48.072;11.688;2024-03-02T10:55:57;34.25;;;7.75;;
84644;SDS011;74874;48.072;11.688;2024-03-02T10:58:27;13.02;;;7.97;;
84644;SDS011;74874;48.072;11.688;2024-03-02T11:00:57;14.57;;;7.60;;
84644;SDS011;74874;48.072;11.688;2024-03-02T11:03:26;13.70;;;7.65;;
84644;SDS011;74874;48.072;11.688;2024-03-02T11:05:51;12.25;;;7.20;;
84644;SDS011;74874;48.072;11.688;2024-03-02T11:08:20;10.95;;;6.50;;
84644;SDS011;74874;48.072;11.688;2024-03-02T11:10:50;11.90;;;7.00;;
84644;SDS011;74874;48.072;11.688;2024-03-02T11:13:16;11.80;;;6.47;;
84644;SDS011;74874;48.072;11.688;2024-03-02T11:15:51;12.35;;;7.72;;
84644;SDS011;74874;48.072;11.688;2024-03-02T11:18:19;14.88;;;7.70;;
84644;SDS011;74874;48.072;11.688;2024-03-02T11:20:45;10.93;;;6.90;;
84644;SDS011;74874;48.072;11.688;2024-03-02T11:23:11;12.80;;;7.45;;
84644;SDS011;74874;48.072;11.688;2024-03-02T11:25:37;10.25;;;6.10;;
84644;SDS011;74874;48.072;11.688;2024-03-02T11:28:04;11.57;;;6.78;;
84644;SDS011;74874;48.072;11.688;2024-03-02T11:32:59;10.77;;;6.45;;
84644;SDS011;74874;48.072;11.688;2024-03-02T11:35:25;9.30;;;6.35;;
84644;SDS011;74874;48.072;11.688;2024-03-02T11:37:51;11.13;;;6.20;;
84644;SDS011;74874;48.072;11.688;2024-03-02T11:40:23;9.55;;;6.35;;
84644;SDS011;74874;48.072;11.688;2024-03-02T11:42:49;9.63;;;5.78;;
84644;SDS011;74874;48.072;11.688;2024-03-02T11:45:22;8.52;;;4.47;;
84644;SDS011;74874;48.072;11.688;2024-03-02T11:47:51;9.07;;;4.90;;
84644;SDS011;74874;48.072;11.688;2024-03-02T11:50:33;9.07;;;4.97;;
84644;SDS011;74874;48.072;11.688;2024-03-02T11:53:00;9.43;;;5.07;;
84644;SDS011;74874;48.072;11.688;2024-03-02T11:55:26;9.05;;;5.78;;
84644;SDS011;74874;48.072;11.688;2024-03-02T11:57:54;10.63;;;6.38;;
84644;SDS011;74874;48.072;11.688;2024-03-02T12:00:19;136.10;;;74.10;;
84644;SDS011;74874;48.072;11.688;2024-03-02T12:02:59;8.80;;;5.20;;
84644;SDS011;74874;48.072;11.688;2024-03-02T12:05:26;8.38;;;4.60;;
84644;SDS011;74874;48.072;11.688;2024-03-02T12:08:02;10.93;;;4.95;;
84644;SDS011;74874;48.072;11.688;2024-03-02T12:10:30;9.90;;;4.75;;
84644;SDS011;74874;48.072;11.688;2024-03-02T12:12:59;8.45;;;4.53;;
84644;SDS011;74874;48.072;11.688;2024-03-02T12:15:26;8.05;;;4.60;;
84644;SDS011;74874;48.072;11.688;2024-03-02T12:17:53;8.00;;;4.45;;
84644;SDS011;74874;48.072;11.688;2024-03-02T12:20:22;10.13;;;5.60;;
84644;SDS011;74874;48.072;11.688;2024-03-02T12:22:51;7.93;;;4.68;;
84644;SDS011;74874;48.072;11.688;2024-03-02T12:25:17;9.07;;;5.28;;
84644;SDS011;74874;48.072;11.688;2024-03-02T12:27:44;9.18;;;5.68;;
84644;SDS011;74874;48.072;11.688;2024-03-02T12:30:11;11.95;;;6.40;;
84644;SDS011;74874;48.072;11.688;2024-03-02T12:32:37;9.75;;;5.85;;
84644;SDS011;74874;48.072;11.688;2024-03-02T12:35:04;9.65;;;5.43;;
84644;SDS011;74874;48.072;11.688;2024-03-02T12:37:30;10.60;;;5.80;;
84644;SDS011;74874;48.072;11.688;2024-03-02T12:39:56;9.98;;;5.90;;
84644;SDS011;74874;48.072;11.688;2024-03-02T12:42:21;7.05;;;4.40;;
84644;SDS011;74874;48.072;11.688;2024-03-02T12:44:46;10.25;;;5.50;;
84644;SDS011;74874;48.072;11.688;2024-03-02T12:47:12;9.60;;;4.88;;
84644;SDS011;74874;48.072;11.688;2024-03-02T12:49:39;10.80;;;5.57;;
84644;SDS011;74874;48.072;11.688;2024-03-02T12:52:05;11.35;;;5.47;;
84644;SDS011;74874;48.072;11.688;2024-03-02T12:54:30;8.82;;;5.07;;
84644;SDS011;74874;48.072;11.688;2024-03-02T12:56:56;9.85;;;4.95;;
84644;SDS011;74874;48.072;11.688;2024-03-02T12:59:23;9.07;;;5.32;;
84644;SDS011;74874;48.072;11.688;2024-03-02T13:01:51;12.00;;;5.75;;
84644;SDS011;74874;48.072;11.688;2024-03-02T13:04:21;10.32;;;6.13;;
84644;SDS011;74874;48.072;11.688;2024-03-02T13:06:47;7.82;;;4.53;;
84644;SDS011;74874;48.072;11.688;2024-03-02T13:09:12;11.57;;;5.28;;
84644;SDS011;74874;48.072;11.688;2024-03-02T13:11:40;5.47;;;3.58;;
84644;SDS011;74874;48.072;11.688;2024-03-02T13:14:06;7.60;;;3.55;;
84644;SDS011;74874;48.072;11.688;2024-03-02T13:16:31;9.98;;;5.38;;
84644;SDS011;74874;48.072;11.688;2024-03-02T13:18:57;8.73;;;5.60;;
84644;SDS011;74874;48.072;11.688;2024-03-02T13:21:22;8.45;;;4.40;;
84644;SDS011;74874;48.072;11.688;2024-03-02T13:23:47;8.50;;;4.90;;
84644;SDS011;74874;48.072;11.688;2024-03-02T13:26:13;16.65;;;7.43;;
84644;SDS011;74874;48.072;11.688;2024-03-02T13:28:38;11.10;;;6.35;;
84644;SDS011;74874;48.072;11.688;2024-03-02T13:31:04;12.20;;;7.72;;
84644;SDS011;74874;48.072;11.688;2024-03-02T13:33:30;14.00;;;8.40;;
84644;SDS011;74874;48.072;11.688;2024-03-02T13:35:56;14.80;;;8.23;;
84644;SDS011;74874;48.072;11.688;2024-03-02T13:38:21;13.98;;;8.48;;
84644;SDS011;74874;48.072;11.688;2024-03-02T13:40:47;14.98;;;9.45;;
84644;SDS011;74874;48.072;11.688;2024-03-02T13:43:16;13.68;;;8.25;;
84644;SDS011;74874;48.072;11.688;2024-03-02T13:45:41;13.60;;;7.80;;
84644;SDS011;74874;48.072;11.688;2024-03-02T13:48:07;13.35;;;8.25;;
84644;SDS011;74874;48.072;11.688;2024-03-02T13:50:32;13.55;;;7.32;;
84644;SDS011;74874;48.072;11.688;2024-03-02T13:52:58;12.82;;;6.93;;
84644;SDS011;74874;48.072;11.688;2024-03-02T13:55:23;13.70;;;6.65;;
84644;SDS011;74874;48.072;11.688;2024-03-02T13:57:48;12.57;;;6.78;;
84644;SDS011;74874;48.072;11.688;2024-03-02T14:00:17;12.50;;;6.03;;
84644;SDS011;74874;48.072;11.688;2024-03-02T14:02:43;9.32;;;4.97;;
84644;SDS011;74874;48.072;11.688;2024-03-02T14:05:08;7.65;;;4.57;;
84644;SDS011;74874;48.072;11.688;2024-03-02T14:07:38;10.40;;;6.45;;
84644;SDS011;74874;48.072;11.688;2024-03-02T14:10:04;12.60;;;6.00;;
84644;SDS011;74874;48.072;11.688;2024-03-02T14:12:30;13.05;;;6.07;;
84644;SDS011;74874;48.072;11.688;2024-03-02T14:14:55;11.05;;;5.47;;
84644;SDS011;74874;48.072;11.688;2024-03-02T14:17:23;13.77;;;6.50;;
84644;SDS011;74874;48.072;11.688;2024-03-02T14:19:49;12.15;;;6.55;;
84644;SDS011;74874;48.072;11.688;2024-03-02T14:22:14;12.40;;;6.30;;
84644;SDS011;74874;48.072;11.688;2024-03-02T14:24:42;10.80;;;6.78;;
84644;SDS011;74874;48.072;11.688;2024-03-02T14:27:08;11.15;;;6.65;;